createdAt,value
2024-02-27T00:01:06.205Z,58.38
2024-02-27T00:03:08.782Z,57.80
2024-02-27T00:05:11.365Z,57.53
2024-02-27T00:07:14.385Z,56.92
2024-02-27T00:09:19.951Z,57.13
2024-02-27T00:11:23.140Z,57.29
2024-02-27T00:13:25.810Z,56.73
2024-02-27T00:15:28.369Z,56.18
2024-02-27T00:17:30.973Z,55.38
2024-02-27T00:19:33.783Z,56.35
2024-02-27T00:21:36.618Z,56.49
2024-02-27T00:23:39.306Z,56.86
2024-02-27T00:25:41.919Z,56.83
2024-02-27T00:27:44.435Z,56.96
2024-02-27T00:29:47.069Z,56.32
2024-02-27T00:31:49.616Z,56.33
2024-02-27T00:33:52.500Z,55.88
2024-02-27T00:35:55.214Z,55.79
2024-02-27T00:37:57.844Z,56.01
2024-02-27T00:40:00.725Z,55.55
2024-02-27T00:42:05.069Z,54.53
2024-02-27T00:44:08.735Z,53.90
2024-02-27T00:46:11.329Z,53.95
2024-02-27T00:48:14.149Z,54.46
2024-02-27T00:50:16.960Z,53.68
2024-02-27T00:52:19.556Z,54.48
2024-02-27T00:54:22.110Z,53.90
2024-02-27T00:56:24.851Z,53.57
2024-02-27T00:58:28.156Z,53.03
2024-02-27T01:00:30.699Z,52.89
2024-02-27T01:02:33.317Z,53.03
2024-02-27T01:04:35.897Z,52.83
2024-02-27T01:06:38.548Z,52.50
2024-02-27T01:08:41.327Z,53.22
2024-02-27T01:10:43.938Z,52.43
2024-02-27T01:12:47.053Z,52.49
2024-02-27T01:14:49.661Z,52.97
2024-02-27T01:16:52.180Z,52.55
2024-02-27T01:18:54.873Z,52.86
2024-02-27T01:20:57.501Z,53.38
2024-02-27T01:23:00.115Z,53.53
2024-02-27T01:25:03.294Z,53.39
2024-02-27T01:27:07.302Z,53.16
2024-02-27T01:29:09.976Z,53.23
2024-02-27T01:31:12.568Z,52.54
2024-02-27T01:33:15.283Z,53.90
2024-02-27T01:35:19.998Z,53.14
2024-02-27T01:37:22.613Z,53.14
2024-02-27T01:39:27.405Z,53.66
2024-02-27T01:41:30.398Z,53.54
2024-02-27T01:43:33.090Z,53.86
2024-02-27T01:45:36.184Z,55.12
2024-02-27T01:47:38.900Z,54.25
2024-02-27T01:49:43.032Z,54.17
2024-02-27T01:51:48.415Z,54.74
2024-02-27T01:53:56.109Z,54.73
2024-02-27T01:56:00.441Z,54.00
2024-02-27T01:58:03.121Z,54.12
2024-02-27T02:00:10.985Z,54.36
2024-02-27T02:02:15.400Z,53.60
2024-02-27T02:04:18.720Z,54.12
2024-02-27T02:06:21.601Z,53.93
2024-02-27T02:08:24.183Z,54.62
2024-02-27T02:10:26.875Z,54.60
2024-02-27T02:12:29.779Z,54.83
2024-02-27T02:14:32.561Z,55.69
2024-02-27T02:16:35.295Z,55.19
2024-02-27T02:18:38.316Z,54.84
2024-02-27T02:20:41.024Z,55.28
2024-02-27T02:22:43.773Z,55.15
2024-02-27T02:24:47.253Z,56.64
2024-02-27T02:26:50.638Z,56.17
2024-02-27T02:28:53.265Z,56.83
2024-02-27T02:30:56.175Z,56.14
2024-02-27T02:32:58.920Z,56.47
2024-02-27T02:35:01.577Z,56.76
2024-02-27T02:37:05.861Z,55.88
2024-02-27T02:39:08.394Z,56.38
2024-02-27T02:41:10.947Z,56.33
2024-02-27T02:43:13.554Z,55.16
2024-02-27T02:45:16.514Z,55.20
2024-02-27T02:47:19.226Z,54.41
2024-02-27T02:49:22.086Z,55.24
2024-02-27T02:51:25.140Z,55.00
2024-02-27T02:53:27.819Z,55.02
2024-02-27T02:55:30.472Z,54.77
2024-02-27T02:57:34.081Z,54.85
2024-02-27T02:59:36.730Z,55.86
2024-02-27T03:01:39.272Z,56.07
2024-02-27T03:03:41.961Z,55.90
2024-02-27T03:05:44.753Z,54.39
2024-02-27T03:07:47.519Z,55.66
2024-02-27T03:09:50.058Z,55.02
2024-02-27T03:11:52.703Z,55.15
2024-02-27T03:13:55.221Z,55.93
2024-02-27T03:15:58.162Z,56.32
2024-02-27T03:18:00.895Z,56.72
2024-02-27T03:20:06.937Z,56.70
2024-02-27T03:22:10.696Z,56.78
2024-02-27T03:24:13.366Z,56.02
2024-02-27T03:26:17.769Z,55.98
2024-02-27T03:28:20.365Z,55.91
2024-02-27T03:30:22.958Z,55.90
2024-02-27T03:32:25.622Z,55.94
2024-02-27T03:34:28.487Z,55.96
2024-02-27T03:36:31.423Z,55.55
2024-02-27T03:38:34.838Z,54.64
2024-02-27T03:40:37.649Z,55.22
2024-02-27T03:42:40.851Z,54.18
2024-02-27T03:44:49.147Z,55.42
2024-02-27T03:46:52.079Z,56.33
2024-02-27T03:48:54.914Z,56.32
2024-02-27T03:50:57.566Z,55.28
2024-02-27T03:53:00.157Z,54.66
2024-02-27T03:55:02.707Z,53.65
2024-02-27T03:57:06.986Z,53.36
2024-02-27T03:59:12.054Z,55.25
2024-02-27T04:01:18.608Z,56.01
2024-02-27T04:03:21.202Z,55.67
2024-02-27T04:05:23.840Z,55.78
2024-02-27T04:07:27.148Z,55.62
2024-02-27T04:09:30.440Z,55.05
2024-02-27T04:11:33.066Z,55.61
2024-02-27T04:13:36.513Z,54.87
2024-02-27T04:15:40.219Z,54.95
2024-02-27T04:17:42.843Z,55.96
2024-02-27T04:19:45.501Z,55.32
2024-02-27T04:21:48.266Z,56.05
2024-02-27T04:23:50.930Z,56.50
2024-02-27T04:25:53.509Z,56.11
2024-02-27T04:27:56.220Z,55.94
2024-02-27T04:29:58.827Z,55.73
2024-02-27T04:32:01.389Z,56.48
2024-02-27T04:34:04.852Z,56.67
2024-02-27T04:36:10.599Z,55.90
2024-02-27T04:38:13.208Z,55.82
2024-02-27T04:40:15.833Z,56.01
2024-02-27T04:42:18.404Z,55.62
2024-02-27T04:44:21.460Z,56.53
2024-02-27T04:46:25.194Z,56.46
2024-02-27T04:48:27.883Z,54.76
2024-02-27T04:50:30.591Z,53.91
2024-02-27T04:52:33.341Z,54.14
2024-02-27T04:54:38.698Z,54.52
2024-02-27T04:56:44.149Z,54.11
2024-02-27T04:58:46.699Z,54.97
2024-02-27T05:00:49.523Z,54.52
2024-02-27T05:02:52.210Z,54.06
2024-02-27T05:04:54.806Z,54.59
2024-02-27T05:06:57.464Z,54.23
2024-02-27T05:09:00.251Z,52.08
2024-02-27T05:11:03.890Z,50.77
2024-02-27T05:13:06.579Z,51.75
2024-02-27T05:15:09.512Z,52.20
2024-02-27T05:17:12.371Z,50.93
2024-02-27T05:19:15.157Z,51.40
2024-02-27T05:21:21.385Z,51.79
2024-02-27T05:23:24.112Z,52.22
2024-02-27T05:25:26.657Z,52.67
2024-02-27T05:27:29.318Z,52.72
2024-02-27T05:29:34.260Z,51.79
2024-02-27T05:31:37.130Z,53.06
2024-02-27T05:33:39.862Z,52.46
2024-02-27T05:35:47.556Z,52.47
2024-02-27T05:37:50.488Z,52.67
2024-02-27T05:39:53.193Z,52.10
2024-02-27T05:41:55.944Z,52.40
2024-02-27T05:43:59.884Z,51.69
2024-02-27T05:46:02.376Z,51.68
2024-02-27T05:48:05.557Z,51.23
2024-02-27T05:50:08.806Z,51.16
2024-02-27T05:52:11.317Z,51.85
2024-02-27T05:54:13.881Z,51.62
2024-02-27T05:56:18.034Z,50.84
2024-02-27T05:58:21.517Z,50.73
2024-02-27T06:00:24.469Z,50.14
2024-02-27T06:02:27.137Z,50.92
2024-02-27T06:04:29.767Z,50.65
2024-02-27T06:06:32.347Z,50.77
2024-02-27T06:08:35.229Z,50.90
2024-02-27T06:10:38.381Z,50.64
2024-02-27T06:12:41.085Z,49.87
2024-02-27T06:14:43.786Z,49.44
2024-02-27T06:16:46.386Z,50.49
2024-02-27T06:18:49.522Z,50.67
2024-02-27T06:21:11.090Z,49.39
2024-02-27T06:23:13.718Z,50.02
2024-02-27T06:25:16.473Z,50.51
2024-02-27T06:27:19.180Z,49.59
2024-02-27T06:29:21.927Z,50.26
2024-02-27T06:31:24.501Z,49.95
2024-02-27T06:33:27.162Z,50.03
2024-02-27T06:35:30.013Z,48.19
2024-02-27T06:37:32.688Z,48.49
2024-02-27T06:39:35.459Z,48.91
2024-02-27T06:41:38.088Z,49.13
2024-02-27T06:43:40.600Z,48.82
2024-02-27T06:45:43.239Z,48.44
2024-02-27T06:47:45.879Z,46.48
2024-02-27T06:49:48.793Z,48.25
2024-02-27T06:51:51.835Z,48.68
2024-02-27T06:53:54.411Z,47.82
2024-02-27T06:55:57.103Z,48.98
2024-02-27T06:57:59.640Z,48.48
2024-02-27T07:00:02.568Z,48.78
2024-02-27T07:02:08.225Z,48.84
2024-02-27T07:04:10.810Z,49.03
2024-02-27T07:06:13.628Z,48.83
2024-02-27T07:08:16.359Z,48.18
2024-02-27T07:10:18.964Z,48.44
2024-02-27T07:12:21.717Z,48.78
2024-02-27T07:14:24.386Z,46.22
2024-02-27T07:16:27.049Z,46.08
2024-02-27T07:18:29.827Z,45.18
2024-02-27T07:20:32.553Z,46.11
2024-02-27T07:22:35.105Z,45.22
2024-02-27T07:24:37.873Z,44.08
2024-02-27T07:26:40.419Z,44.25
2024-02-27T07:28:44.936Z,44.41
2024-02-27T07:30:49.791Z,44.04
2024-02-27T07:32:52.716Z,44.63
2024-02-27T07:34:55.366Z,43.86
2024-02-27T07:36:57.962Z,43.52
2024-02-27T07:39:00.606Z,43.95
2024-02-27T07:41:04.194Z,43.45
2024-02-27T07:43:06.860Z,43.26
2024-02-27T07:45:09.996Z,43.55
2024-02-27T07:47:12.572Z,44.29
2024-02-27T07:49:15.456Z,42.81
2024-02-27T07:51:34.368Z,43.81
2024-02-27T07:53:36.969Z,43.64
2024-02-27T07:55:40.469Z,42.76
2024-02-27T07:57:42.976Z,43.06
2024-02-27T07:59:45.591Z,42.70
2024-02-27T08:01:48.205Z,42.95
2024-02-27T08:03:50.781Z,41.82
2024-02-27T08:05:53.524Z,42.46
2024-02-27T08:07:56.192Z,43.11
2024-02-27T08:09:58.800Z,42.55
2024-02-27T08:12:01.695Z,41.87
2024-02-27T08:14:05.299Z,42.65
2024-02-27T08:16:08.130Z,42.39
2024-02-27T08:18:10.930Z,42.01
2024-02-27T08:20:13.705Z,42.19
2024-02-27T08:22:17.878Z,41.75
2024-02-27T08:24:20.675Z,42.76
2024-02-27T08:26:23.593Z,42.60
2024-02-27T08:28:26.298Z,42.30
2024-02-27T08:30:28.904Z,43.19
2024-02-27T08:32:32.902Z,42.52
2024-02-27T08:34:35.741Z,43.39
2024-02-27T08:36:38.613Z,43.94
2024-02-27T08:38:45.466Z,43.66
2024-02-27T08:40:47.993Z,43.20
2024-02-27T08:42:51.776Z,42.69
2024-02-27T08:44:54.609Z,43.02
2024-02-27T08:47:00.338Z,42.05
2024-02-27T08:49:04.388Z,42.52
2024-02-27T08:51:07.025Z,42.98
2024-02-27T08:53:10.008Z,42.84
2024-02-27T08:55:12.622Z,43.06
2024-02-27T08:57:15.407Z,42.63
2024-02-27T08:59:19.480Z,42.77
2024-02-27T09:01:22.121Z,42.81
2024-02-27T09:03:24.726Z,43.58
2024-02-27T09:05:27.434Z,43.10
2024-02-27T09:07:30.052Z,42.13
2024-02-27T09:09:32.798Z,42.17
2024-02-27T09:11:35.821Z,42.52
2024-02-27T09:13:38.460Z,42.80
2024-02-27T09:15:41.136Z,43.91
2024-02-27T09:17:43.949Z,43.16
2024-02-27T09:19:48.405Z,43.42
2024-02-27T09:21:51.124Z,42.94
2024-02-27T09:23:55.910Z,43.69
2024-02-27T09:25:58.553Z,44.15
2024-02-27T09:28:01.460Z,44.23
2024-02-27T09:30:04.464Z,44.67
2024-02-27T09:32:07.600Z,44.21
2024-02-27T10:10:59.393Z,42.71
2024-02-27T10:13:02.249Z,43.36
2024-02-27T10:15:06.291Z,43.28
2024-02-27T10:17:10.589Z,43.89
2024-02-27T10:19:13.490Z,43.20
2024-02-27T10:21:18.560Z,43.59
2024-02-27T10:23:21.358Z,43.75
2024-02-27T10:25:29.228Z,43.10
2024-02-27T10:27:37.378Z,43.25
2024-02-27T10:29:42.845Z,43.66
2024-02-27T10:31:46.138Z,43.27
2024-02-27T10:33:49.285Z,43.68
2024-02-27T10:35:53.701Z,42.29
2024-02-27T10:37:57.939Z,43.59
2024-02-27T10:40:01.696Z,43.97
2024-02-27T10:42:05.516Z,42.76
2024-02-27T10:44:14.312Z,42.89
2024-02-27T10:46:17.880Z,42.96
2024-02-27T10:48:26.911Z,43.20
2024-02-27T10:50:37.383Z,42.55
2024-02-27T10:52:40.730Z,42.84
2024-02-27T10:54:46.764Z,43.71
2024-02-27T10:56:50.588Z,43.50
2024-02-27T10:58:54.502Z,43.19
2024-02-27T11:00:57.906Z,42.95
2024-02-27T11:03:06.540Z,43.47
2024-02-27T11:05:10.351Z,43.56
2024-02-27T11:07:15.334Z,43.60
2024-02-27T11:09:25.842Z,43.41
2024-02-27T11:11:29.333Z,42.82
2024-02-27T11:13:34.173Z,42.79
2024-02-27T11:15:40.712Z,42.45
2024-02-27T11:17:47.170Z,42.19
2024-02-27T11:19:51.733Z,41.72
2024-02-27T11:21:55.775Z,42.23
2024-02-27T11:23:59.009Z,42.80
2024-02-27T11:26:03.061Z,42.75
2024-02-27T11:28:06.763Z,42.44
2024-02-27T11:30:10.844Z,42.07
2024-02-27T11:32:14.258Z,42.56
2024-02-27T11:34:25.481Z,42.19
2024-02-27T11:36:28.510Z,41.43
2024-02-27T11:38:38.793Z,41.97
2024-02-27T11:40:49.723Z,41.59
2024-02-27T11:42:52.719Z,41.42
2024-02-27T11:45:08.019Z,41.62
2024-02-27T11:47:34.856Z,42.83
2024-02-27T11:49:40.942Z,42.69
2024-02-27T11:51:44.182Z,42.74
2024-02-27T11:53:47.038Z,41.02
2024-02-27T11:55:55.379Z,41.20
2024-02-27T11:58:03.686Z,42.56
2024-02-27T12:00:11.927Z,41.73
2024-02-27T12:02:19.241Z,41.94
2024-02-27T12:04:22.071Z,41.91
2024-02-27T12:06:24.815Z,41.87
2024-02-27T12:08:27.622Z,41.05
2024-02-27T12:10:31.098Z,42.07
2024-02-27T12:12:35.812Z,41.60
2024-02-27T12:14:38.746Z,41.41
2024-02-27T12:16:43.721Z,42.25
2024-02-27T12:18:48.954Z,42.16
2024-02-27T12:20:53.076Z,41.39
2024-02-27T12:22:55.926Z,42.40
2024-02-27T12:24:59.724Z,41.56
2024-02-27T12:27:02.544Z,41.89
2024-02-27T12:29:05.310Z,42.09
2024-02-27T12:31:08.490Z,42.82
2024-02-27T12:33:12.177Z,41.61
2024-02-27T12:35:16.406Z,41.84
2024-02-27T12:37:19.685Z,41.57
2024-02-27T12:39:24.478Z,42.76
2024-02-27T12:41:27.928Z,42.38
2024-02-27T12:43:30.721Z,43.32
2024-02-27T12:45:33.579Z,42.98
2024-02-27T12:47:37.275Z,41.97
2024-02-27T12:49:40.320Z,43.03
2024-02-27T12:51:43.234Z,42.07
2024-02-27T12:53:46.004Z,42.88
2024-02-27T12:55:49.050Z,42.42
2024-02-27T12:57:55.719Z,42.52
2024-02-27T12:59:58.494Z,42.61
2024-02-27T13:02:01.173Z,42.94
2024-02-27T13:04:04.110Z,43.76
2024-02-27T13:06:07.113Z,43.79
2024-02-27T13:08:11.159Z,44.04
2024-02-27T13:10:14.620Z,44.23
2024-02-27T13:12:17.530Z,43.60
2024-02-27T13:14:20.276Z,44.57
2024-02-27T13:16:24.615Z,45.06
2024-02-27T13:18:28.318Z,45.67
2024-02-27T13:20:31.090Z,45.20
2024-02-27T13:22:33.786Z,45.47
2024-02-27T13:24:36.587Z,45.86
2024-02-27T13:26:39.327Z,45.65
2024-02-27T13:28:42.053Z,45.07
2024-02-27T13:30:45.415Z,44.62
2024-02-27T13:32:48.705Z,45.06
2024-02-27T13:34:51.578Z,44.42
2024-02-27T13:36:54.517Z,44.72
2024-02-27T13:38:57.355Z,45.16
2024-02-27T13:41:00.217Z,44.14
2024-02-27T13:43:04.083Z,45.29
2024-02-27T13:45:07.319Z,46.00
2024-02-27T13:47:12.098Z,45.91
2024-02-27T13:49:24.121Z,45.90
2024-02-27T13:51:27.025Z,45.86
2024-02-27T13:53:30.493Z,45.77
2024-02-27T13:55:33.305Z,46.64
2024-02-27T13:57:36.077Z,46.42
2024-02-27T13:59:39.008Z,46.37
2024-02-27T14:01:41.819Z,46.88
2024-02-27T14:03:45.194Z,46.43
2024-02-27T14:05:48.257Z,46.91
2024-02-27T14:07:52.593Z,47.18
2024-02-27T14:09:55.345Z,47.00
2024-02-27T14:11:58.225Z,47.23
2024-02-27T14:14:07.376Z,47.31
2024-02-27T14:16:16.625Z,48.11
2024-02-27T14:18:19.607Z,47.54
2024-02-27T14:20:22.882Z,47.89
2024-02-27T14:22:25.773Z,47.75
2024-02-27T14:24:28.633Z,48.20
2024-02-27T14:26:31.490Z,48.02
2024-02-27T14:28:34.212Z,48.73
2024-02-27T14:30:37.003Z,48.58
2024-02-27T14:32:40.440Z,48.87
2024-02-27T14:34:43.415Z,49.33
2024-02-27T14:36:46.596Z,49.35
2024-02-27T14:38:49.501Z,49.22
2024-02-27T14:40:52.370Z,49.39
2024-02-27T14:42:55.210Z,49.66
2024-02-27T14:44:58.078Z,50.22
2024-02-27T14:47:00.785Z,49.61
2024-02-27T14:49:05.338Z,50.08
2024-02-27T14:51:09.823Z,50.24
2024-02-27T14:53:13.611Z,50.11
2024-02-27T14:55:16.465Z,49.72
2024-02-27T14:57:19.194Z,49.88
2024-02-27T14:59:22.937Z,50.31
2024-02-27T15:01:33.119Z,50.72
2024-02-27T15:03:38.701Z,50.42
2024-02-27T15:05:41.583Z,50.36
2024-02-27T15:07:44.786Z,50.52
2024-02-27T15:09:47.775Z,49.85
2024-02-27T15:11:50.924Z,50.26
2024-02-27T15:13:53.689Z,50.13
2024-02-27T15:15:56.985Z,50.42
2024-02-27T15:17:59.860Z,50.82
2024-02-27T15:20:02.772Z,50.59
2024-02-27T15:22:06.746Z,51.31
2024-02-27T15:24:09.461Z,50.81
2024-02-27T15:26:12.216Z,50.46
2024-02-27T15:28:14.944Z,50.99
2024-02-27T15:30:21.603Z,51.21
2024-02-27T15:32:31.405Z,50.97
2024-02-27T15:34:47.191Z,51.43
2024-02-27T15:36:58.338Z,51.03
2024-02-27T15:39:09.215Z,51.05
2024-02-27T15:42:09.283Z,51.23
2024-02-27T15:44:28.870Z,51.34
2024-02-27T15:46:33.723Z,50.94
2024-02-27T15:48:37.484Z,51.36
2024-02-27T15:50:40.390Z,51.89
2024-02-27T15:52:43.092Z,51.29
2024-02-27T15:54:46.377Z,52.24
2024-02-27T15:56:49.159Z,51.83
2024-02-27T15:58:52.090Z,52.07
2024-02-27T16:00:55.498Z,52.13
2024-02-27T16:03:12.203Z,52.63
2024-02-27T16:05:21.370Z,52.10
2024-02-27T16:07:33.405Z,53.15
2024-02-27T16:09:38.018Z,52.29
2024-02-27T16:11:40.684Z,53.17
2024-02-27T16:13:44.931Z,52.49
2024-02-27T16:15:47.656Z,53.32
2024-02-27T16:17:50.411Z,53.90
2024-02-27T16:19:53.627Z,53.32
2024-02-27T16:22:05.173Z,52.69
2024-02-27T16:24:09.453Z,52.90
2024-02-27T16:26:12.385Z,52.61
2024-02-27T16:28:15.203Z,53.04
2024-02-27T16:30:18.087Z,52.56
2024-02-27T16:32:21.014Z,52.51
2024-02-27T16:34:25.101Z,52.60
2024-02-27T16:36:28.312Z,53.16
2024-02-27T16:38:31.206Z,53.35
2024-02-27T16:40:33.889Z,53.17
2024-02-27T16:42:36.798Z,53.42
2024-02-27T16:44:39.644Z,53.34
2024-02-27T16:46:42.392Z,53.46
2024-02-27T16:48:45.182Z,53.10
2024-02-27T16:50:47.880Z,53.62
2024-02-27T16:52:51.470Z,52.64
2024-02-27T16:54:54.341Z,52.60
2024-02-27T16:56:57.076Z,52.97
2024-02-27T16:59:01.257Z,53.13
2024-02-27T17:01:06.640Z,53.27
2024-02-27T17:03:09.492Z,53.84
2024-02-27T17:05:12.447Z,52.57
2024-02-27T17:07:15.218Z,53.59
2024-02-27T17:09:20.220Z,54.07
2024-02-27T17:11:23.007Z,53.56
2024-02-27T17:13:25.811Z,53.38
2024-02-27T17:15:28.636Z,54.07
2024-02-27T17:17:31.440Z,54.25
2024-02-27T17:19:34.655Z,53.98
2024-02-27T17:21:37.414Z,53.92
2024-02-27T17:23:40.155Z,53.58
2024-02-27T17:25:45.033Z,54.10
2024-02-27T17:27:47.996Z,54.44
2024-02-27T17:29:52.011Z,54.22
2024-02-27T17:31:54.722Z,54.31
2024-02-27T17:33:57.631Z,54.33
2024-02-27T17:36:01.274Z,55.77
2024-02-27T17:38:04.637Z,53.88
2024-02-27T17:40:07.867Z,54.06
2024-02-27T17:42:10.820Z,54.59
2024-02-27T17:44:13.564Z,54.39
2024-02-27T17:46:16.326Z,54.42
2024-02-27T17:48:19.321Z,54.18
2024-02-27T17:50:22.176Z,54.57
2024-02-27T17:52:25.312Z,54.87
2024-02-27T17:54:28.183Z,54.09
2024-02-27T17:56:31.016Z,54.51
2024-02-27T17:58:35.958Z,54.93
2024-02-27T18:00:39.271Z,55.26
2024-02-27T18:02:42.137Z,55.72
2024-02-27T18:04:44.928Z,56.37
2024-02-27T18:06:48.074Z,56.03
2024-02-27T18:08:51.010Z,56.11
2024-02-27T18:10:53.833Z,55.58
2024-02-27T18:12:56.723Z,55.57
2024-02-27T18:15:00.563Z,55.67
2024-02-27T18:17:03.378Z,55.68
2024-02-27T18:19:06.255Z,56.47
2024-02-27T18:21:09.253Z,56.85
2024-02-27T18:23:12.033Z,56.36
2024-02-27T18:25:14.976Z,57.28
2024-02-27T18:27:21.720Z,56.06
2024-02-27T18:29:24.670Z,57.11
2024-02-27T18:31:27.446Z,56.72
2024-02-27T18:33:30.377Z,56.99
2024-02-27T18:35:35.910Z,56.17
2024-02-27T18:37:38.776Z,57.32
2024-02-27T18:39:43.856Z,57.04
2024-02-27T18:41:47.218Z,57.15
2024-02-27T18:43:50.972Z,56.32
2024-02-27T18:45:53.773Z,56.72
2024-02-27T18:47:57.271Z,56.33
2024-02-27T18:50:03.655Z,56.47
2024-02-27T18:52:08.072Z,56.49
2024-02-27T18:54:10.875Z,56.86
2024-02-27T18:56:13.631Z,56.56
2024-02-27T18:58:16.521Z,57.02
2024-02-27T19:00:19.680Z,57.24
2024-02-27T19:02:22.453Z,57.43
2024-02-27T19:04:25.246Z,56.98
2024-02-27T19:06:28.152Z,56.26
2024-02-27T19:08:31.805Z,57.74
2024-02-27T19:10:36.934Z,58.08
2024-02-27T19:12:40.120Z,58.46
2024-02-27T19:14:43.170Z,57.13
2024-02-27T19:16:45.954Z,57.64
2024-02-27T19:18:49.693Z,58.25
2024-02-27T19:20:52.663Z,57.90
2024-02-27T19:22:55.528Z,58.17
2024-02-27T19:24:58.727Z,57.76
2024-02-27T19:27:01.567Z,57.64
2024-02-27T19:29:04.462Z,58.29
2024-02-27T19:31:07.961Z,58.49
2024-02-27T19:33:11.643Z,58.63
2024-02-27T19:35:14.502Z,58.57
2024-02-27T19:37:17.960Z,58.42
2024-02-27T19:39:20.776Z,57.96
2024-02-27T19:41:23.549Z,58.64
2024-02-27T19:43:27.064Z,58.44
2024-02-27T19:45:30.008Z,58.34
2024-02-27T19:47:32.926Z,56.97
2024-02-27T19:49:35.949Z,56.84
2024-02-27T19:51:38.741Z,57.22
2024-02-27T19:53:41.819Z,58.24
2024-02-27T19:55:45.738Z,57.72
2024-02-27T19:57:48.573Z,57.79
2024-02-27T19:59:51.389Z,57.25
2024-02-27T20:01:55.346Z,57.96
2024-02-27T20:03:58.140Z,58.41
2024-02-27T20:06:00.908Z,58.27
2024-02-27T20:08:03.895Z,58.55
2024-02-27T20:10:08.331Z,58.12
2024-02-27T20:12:11.541Z,58.09
2024-02-27T20:14:15.705Z,57.97
2024-02-27T20:16:18.583Z,58.44
2024-02-27T20:18:21.470Z,58.51
2024-02-27T20:20:24.349Z,56.99
2024-02-27T20:22:28.455Z,57.47
2024-02-27T20:24:33.541Z,58.37
2024-02-27T20:26:44.223Z,57.71
2024-02-27T20:28:53.256Z,57.79
2024-02-27T20:30:56.331Z,57.35
2024-02-27T20:33:00.415Z,57.88
2024-02-27T20:35:03.883Z,57.78
2024-02-27T20:37:07.588Z,58.73
2024-02-27T20:39:10.405Z,59.15
2024-02-27T20:41:13.767Z,58.55
2024-02-27T20:43:16.571Z,58.29
2024-02-27T20:45:21.968Z,58.06
2024-02-27T20:47:24.800Z,58.18
2024-02-27T20:49:27.532Z,58.75
2024-02-27T20:51:31.200Z,58.31
2024-02-27T20:53:34.528Z,57.31
2024-02-27T20:55:37.268Z,57.06
2024-02-27T20:57:40.073Z,57.51
2024-02-27T20:59:42.832Z,57.23
2024-02-27T21:01:45.699Z,57.01
2024-02-27T21:03:48.481Z,56.23
2024-02-27T21:05:51.334Z,56.46
2024-02-27T21:07:56.254Z,57.13
2024-02-27T21:10:00.502Z,56.64
2024-02-27T21:12:03.927Z,57.16
2024-02-27T21:14:06.664Z,57.55
2024-02-27T21:16:09.808Z,57.42
2024-02-27T21:18:13.152Z,57.56
2024-02-27T21:20:16.133Z,57.69
2024-02-27T21:22:18.820Z,57.62
2024-02-27T21:24:21.517Z,57.29
2024-02-27T21:26:25.802Z,57.53
2024-02-27T21:28:28.463Z,56.18
2024-02-27T21:30:31.681Z,56.84
2024-02-27T21:32:34.584Z,57.14
2024-02-27T21:34:39.802Z,57.49
2024-02-27T21:36:42.838Z,57.30
2024-02-27T21:38:45.585Z,56.80
2024-02-27T21:40:48.379Z,56.96
2024-02-27T21:42:51.173Z,57.37
2024-02-27T21:44:53.914Z,57.98
2024-02-27T21:46:56.652Z,58.42
2024-02-27T21:48:59.414Z,58.25
2024-02-27T21:51:02.262Z,57.60
2024-02-27T21:53:05.965Z,57.77
2024-02-27T21:55:08.892Z,58.21
2024-02-27T21:57:11.638Z,57.80
2024-02-27T21:59:15.616Z,57.59
2024-02-27T22:01:18.365Z,57.26
2024-02-27T22:03:21.385Z,57.42
2024-02-27T22:05:24.295Z,57.40
2024-02-27T22:07:27.201Z,57.80
2024-02-27T22:09:29.878Z,57.01
2024-02-27T22:11:34.069Z,56.91
2024-02-27T22:13:38.626Z,57.08
2024-02-27T22:15:42.151Z,57.12
2024-02-27T22:17:44.966Z,56.98
2024-02-27T22:19:47.842Z,56.27
2024-02-27T22:21:50.729Z,56.95
2024-02-27T22:23:53.485Z,57.00
2024-02-27T22:25:56.158Z,56.67
2024-02-27T22:27:58.922Z,56.92
2024-02-27T22:30:01.614Z,57.29
2024-02-27T22:32:04.717Z,55.99
2024-02-27T22:34:07.453Z,56.28
2024-02-27T22:36:10.186Z,56.73
2024-02-27T22:38:12.999Z,57.20
2024-02-27T22:40:17.332Z,56.89
2024-02-27T22:42:20.658Z,55.91
2024-02-27T22:44:23.451Z,56.52
2024-02-27T22:46:26.176Z,56.14
2024-02-27T22:48:29.113Z,56.61
2024-02-27T22:50:31.832Z,56.44
2024-02-27T22:52:34.539Z,56.25
2024-02-27T22:54:37.435Z,56.73
2024-02-27T22:56:40.293Z,56.31
2024-02-27T22:58:43.018Z,56.86
2024-02-27T23:00:45.822Z,56.84
2024-02-27T23:02:49.162Z,56.65
2024-02-27T23:04:51.910Z,56.54
2024-02-27T23:06:54.650Z,57.33
2024-02-27T23:08:57.462Z,57.17
2024-02-27T23:11:00.159Z,57.30
2024-02-27T23:13:02.918Z,56.88
2024-02-27T23:15:06.249Z,56.62
2024-02-27T23:17:09.008Z,57.26
2024-02-27T23:19:11.836Z,56.89
2024-02-27T23:21:14.608Z,57.47
2024-02-27T23:23:17.324Z,56.69
2024-02-27T23:25:20.180Z,57.38
2024-02-27T23:27:24.976Z,57.21
2024-02-27T23:29:29.211Z,57.64
2024-02-27T23:31:31.959Z,56.77
2024-02-27T23:33:34.677Z,56.62
2024-02-27T23:35:38.439Z,57.13
2024-02-27T23:37:47.088Z,56.84
2024-02-27T23:39:49.984Z,56.71
2024-02-27T23:41:53.018Z,57.36
2024-02-27T23:43:55.698Z,56.71
2024-02-27T23:45:58.448Z,56.86
2024-02-27T23:48:01.278Z,56.95
2024-02-27T23:50:04.250Z,56.93
2024-02-27T23:52:07.569Z,56.29
2024-02-27T23:54:10.450Z,56.98
2024-02-27T23:56:13.268Z,56.35
2024-02-27T23:58:17.708Z,57.53
